Terminal Aerodrome Forecast
Issued by NWS

Home | Current Version | Previous Version | Text Only | Print | Product List | Glossary On
Versions: 1 2 3 4 5 6 7 8 9 10 11 12 13 14 15 16 17 18 19 20 21 22 23 24 25 26 27 28 29 30 31 32
432
FTUS45 KBOI 270222 AAC
TAFBKE
TAF AMD
KBKE 270222Z 2702/2724 30015G25KT P6SM SKC
     FM270300 25020G30KT P6SM -TSRA BKN070CB
     FM270600 32010KT P6SM SCT100=

USA.gov is the U.S. government's official web portal to all federal, state and local government web resources and services.